Time;durP1;ratioP1;P1;durP2;ratioP2;P2;SDS_P1;SDS_P2;PMS_P1;PMS_P2;Temp;Humidity;BMP_temperature;BMP_pressure;BME280_temperature;BME280_humidity;BME280_pressure;Samples;Min_cycle;Max_cycle;Signal;HPM_P1;HPM_P2
2023/01/22 00:01:31;;;;;;;23.07;13.70;;;;;;;-2.57;98.46;96164.53;5013872;28;20717;-82
2023/01/22 00:03:56;;;;;;;24.30;15.37;;;;;;;-2.52;98.87;96158.47;5013460;28;20186;-82
2023/01/22 00:06:22;;;;;;;20.67;13.60;;;;;;;-2.52;98.45;96158.47;5020550;28;20219;-79
2023/01/22 00:08:48;;;;;;;23.33;14.63;;;;;;;-2.47;98.52;96147.28;5014810;28;20667;-79
2023/01/22 00:11:14;;;;;;;24.50;14.77;;;;;;;-2.65;99.60;96148.75;5011935;28;20215;-80
2023/01/22 00:13:40;;;;;;;24.87;14.60;;;;;;;-2.64;99.37;96150.41;5018764;28;20221;-80
2023/01/22 00:16:05;;;;;;;20.80;13.67;;;;;;;-2.67;99.41;96158.13;5006945;28;20207;-81
2023/01/22 00:18:31;;;;;;;21.97;14.47;;;;;;;-2.66;99.08;96138.63;5013083;28;20206;-81
2023/01/22 00:20:56;;;;;;;21.50;13.60;;;;;;;-2.54;98.72;96152.63;5022333;28;20310;-81
2023/01/22 00:23:23;;;;;;;20.73;13.77;;;;;;;-2.54;99.11;96150.09;5027361;28;20242;-81
2023/01/22 00:25:49;;;;;;;24.37;14.33;;;;;;;-2.55;99.05;96143.34;5016011;28;20175;-81
2023/01/22 00:28:15;;;;;;;21.30;13.77;;;;;;;-2.58;99.09;96139.19;4998149;28;20178;-81
2023/01/22 00:30:40;;;;;;;22.23;13.23;;;;;;;-2.55;98.95;96144.19;5003176;28;20270;-83
2023/01/22 00:33:06;;;;;;;18.00;11.10;;;;;;;-2.62;99.56;96138.47;5024705;28;20263;-83
2023/01/22 00:35:33;;;;;;;20.93;12.43;;;;;;;-2.59;99.02;96138.34;5028911;28;20735;-83
2023/01/22 00:37:58;;;;;;;20.80;12.67;;;;;;;-2.67;99.61;96139.50;5026714;28;20224;-82
2023/01/22 00:40:23;;;;;;;18.53;11.90;;;;;;;-2.78;100.00;96139.88;5004709;28;20218;-82
2023/01/22 00:42:48;;;;;;;19.67;13.17;;;;;;;-2.66;100.00;96130.97;4998993;28;20573;-81
2023/01/22 00:45:14;;;;;;;22.17;13.37;;;;;;;-2.57;99.56;96136.56;5022364;28;20195;-83
2023/01/22 00:47:40;;;;;;;22.83;14.03;;;;;;;-2.68;100.00;96136.13;5017898;28;20218;-83
2023/01/22 00:50:06;;;;;;;20.73;12.87;;;;;;;-2.64;100.00;96124.97;5011987;28;20251;-82
2023/01/22 00:52:31;;;;;;;21.87;14.13;;;;;;;-2.64;99.98;96129.25;5012733;28;20657;-82
2023/01/22 00:54:57;;;;;;;25.70;14.23;;;;;;;-2.70;100.00;96130.28;5013949;28;20191;-80
2023/01/22 00:57:22;;;;;;;26.03;14.33;;;;;;;-2.51;99.99;96129.63;5020577;28;20210;-82
2023/01/22 00:59:47;;;;;;;25.27;15.80;;;;;;;-2.46;99.12;96133.69;5026223;28;20268;-82
2023/01/22 01:02:13;;;;;;;20.23;13.60;;;;;;;-2.48;99.76;96132.88;5011538;28;20194;-81
2023/01/22 01:04:39;;;;;;;24.13;13.63;;;;;;;-2.49;99.57;96115.13;5016946;28;20281;-80
2023/01/22 01:07:04;;;;;;;20.73;11.80;;;;;;;-2.62;99.95;96132.56;5008844;28;20183;-82
2023/01/22 01:09:29;;;;;;;36.00;12.33;;;;;;;-2.74;100.00;96131.28;5020818;28;20249;-83
2023/01/22 01:11:55;;;;;;;19.03;12.00;;;;;;;-2.59;100.00;96125.63;5014505;28;20182;-81
2023/01/22 01:14:20;;;;;;;21.47;12.77;;;;;;;-2.64;100.00;96124.97;5019057;28;20246;-82
2023/01/22 01:16:45;;;;;;;23.80;12.53;;;;;;;-2.50;100.00;96126.19;5014920;28;20249;-83
2023/01/22 01:19:11;;;;;;;18.00;12.23;;;;;;;-2.52;99.91;96133.06;5011364;28;20737;-83
2023/01/22 01:21:37;;;;;;;32.27;13.57;;;;;;;-2.59;100.00;96127.34;5017602;28;20187;-82
2023/01/22 01:24:03;;;;;;;22.77;13.43;;;;;;;-2.59;100.00;96125.63;5013832;28;20183;-83
2023/01/22 01:26:28;;;;;;;30.17;13.67;;;;;;;-2.58;100.00;96134.09;5016667;28;20210;-82
2023/01/22 01:28:53;;;;;;;26.80;13.17;;;;;;;-2.57;100.00;96126.41;5028645;28;20643;-82
2023/01/22 01:31:21;;;;;;;34.80;13.47;;;;;;;-2.52;100.00;96133.06;5021780;28;20199;-80
2023/01/22 01:33:46;;;;;;;23.53;13.47;;;;;;;-2.50;100.00;96128.75;5025527;28;20174;-81
2023/01/22 01:36:20;;;;;;;28.70;13.87;;;;;;;-2.49;100.00;96127.84;5028153;28;20662;-81
2023/01/22 01:38:45;;;;;;;84.50;17.63;;;;;;;-2.61;100.00;96129.13;5014872;28;20612;-81
2023/01/22 01:41:13;;;;;;;115.13;18.07;;;;;;;-2.63;100.00;96136.81;5021782;28;20203;-82
2023/01/22 01:43:38;;;;;;;32.07;13.60;;;;;;;-2.53;100.00;96126.31;5008327;28;20723;-80
2023/01/22 01:46:13;;;;;;;23.93;14.07;;;;;;;-2.46;100.00;96136.22;5015118;28;20278;-81
2023/01/22 01:48:44;;;;;;;93.90;15.77;;;;;;;-2.46;100.00;96125.22;5024424;28;20978;-81
2023/01/22 01:51:14;;;;;;;79.83;17.27;;;;;;;-2.52;100.00;96127.97;5016956;28;20209;-81
2023/01/22 01:53:41;;;;;;;54.37;17.57;;;;;;;-2.43;100.00;96122.56;5016080;28;20652;-82
2023/01/22 01:56:10;;;;;;;97.00;18.17;;;;;;;-2.44;100.00;96124.28;5015427;28;20249;-82
2023/01/22 01:58:37;;;;;;;109.83;18.63;;;;;;;-2.44;100.00;96116.63;5014612;28;20264;-83
2023/01/22 02:01:11;;;;;;;73.30;17.90;;;;;;;-2.46;100.00;96118.41;5015525;28;20703;-81
2023/01/22 02:03:38;;;;;;;139.00;20.23;;;;;;;-2.49;100.00;96122.75;5028867;28;20189;-80
2023/01/22 02:06:03;;;;;;;161.07;21.30;;;;;;;-2.51;100.00;96124.53;5022727;28;20675;-82
2023/01/22 02:08:29;;;;;;;384.93;29.80;;;;;;;-2.63;100.00;96125.81;5017124;28;20199;-82
2023/01/22 02:10:54;;;;;;;88.17;17.27;;;;;;;-2.49;100.00;96120.22;5016227;28;20224;-80
2023/01/22 02:13:24;;;;;;;228.73;24.40;;;;;;;-2.54;100.00;96127.19;5021316;28;20216;-82
2023/01/22 02:15:49;;;;;;;170.73;20.73;;;;;;;-2.56;100.00;96124.72;5025904;28;20197;-81
2023/01/22 02:18:14;;;;;;;190.27;22.13;;;;;;;-2.50;100.00;96121.09;5032876;28;20202;-81
2023/01/22 02:20:53;;;;;;;173.87;22.60;;;;;;;-2.42;100.00;96114.03;5027914;28;20298;-83
2023/01/22 02:23:18;;;;;;;101.97;19.27;;;;;;;-2.46;100.00;96107.41;5029925;28;20651;-82
2023/01/22 02:25:44;;;;;;;307.53;26.83;;;;;;;-2.51;100.00;96116.91;5015498;28;20253;-82
2023/01/22 02:28:09;;;;;;;44.07;15.27;;;;;;;-2.48;100.00;96104.06;5015634;28;20189;-80
2023/01/22 02:30:34;;;;;;;252.13;25.77;;;;;;;-2.54;100.00;96104.31;5020928;28;20211;-81
2023/01/22 02:33:00;;;;;;;90.43;18.47;;;;;;;-2.50;100.00;96095.69;5026481;28;20229;-81
2023/01/22 02:35:25;;;;;;;218.27;29.33;;;;;;;-2.50;100.00;96100.75;5030466;28;20194;-82
2023/01/22 02:37:50;;;;;;;151.33;20.30;;;;;;;-2.48;100.00;96104.06;5014903;28;20224;-82
2023/01/22 02:40:16;;;;;;;284.20;27.77;;;;;;;-2.50;100.00;96106.69;5022002;28;20213;-82
2023/01/22 02:42:41;;;;;;;98.53;17.80;;;;;;;-2.46;100.00;96102.31;5014560;28;20225;-81
2023/01/22 02:45:07;;;;;;;123.60;19.40;;;;;;;-2.40;100.00;96095.28;5029573;28;20651;-83
2023/01/22 02:47:34;;;;;;;50.10;15.77;;;;;;;-2.32;100.00;96097.53;5024308;28;20272;-82
2023/01/22 02:50:00;;;;;;;136.00;18.73;;;;;;;-2.43;100.00;96099.66;5018754;28;20253;-81
2023/01/22 02:52:25;;;;;;;342.90;28.50;;;;;;;-2.46;100.00;96097.25;5015635;28;20192;-81
2023/01/22 02:54:50;;;;;;;226.80;25.17;;;;;;;-2.45;100.00;96102.25;5016571;28;20191;-82
2023/01/22 02:57:16;;;;;;;182.77;20.87;;;;;;;-2.41;100.00;96105.50;5014534;28;20194;-81
2023/01/22 02:59:41;;;;;;;194.43;21.73;;;;;;;-2.36;100.00;96103.66;5015246;28;20218;-80
2023/01/22 03:02:06;;;;;;;341.30;29.83;;;;;;;-2.48;100.00;96096.44;5030649;28;20217;-81
2023/01/22 03:04:32;;;;;;;255.93;24.67;;;;;;;-2.44;100.00;96096.28;5024992;28;20639;-80
2023/01/22 03:06:57;;;;;;;419.90;36.47;;;;;;;-2.45;100.00;96098.91;5030079;28;20190;-80
2023/01/22 03:09:22;;;;;;;537.83;39.53;;;;;;;-2.62;100.00;96099.50;5040441;28;20278;-78
2023/01/22 03:11:48;;;;;;;544.03;38.20;;;;;;;-2.65;100.00;96095.34;5036467;28;20183;-81
2023/01/22 03:22:26;;;;;;;273.80;24.33;;;;;;;-2.49;100.00;96087.16;5037565;28;20206;-80
2023/01/22 03:24:51;;;;;;;219.10;23.37;;;;;;;-2.44;100.00;96091.19;5052355;28;20167;-78
2023/01/22 03:27:19;;;;;;;166.47;22.17;;;;;;;-2.41;100.00;96095.34;5054851;28;20169;-79
2023/01/22 03:29:44;;;;;;;324.43;28.57;;;;;;;-2.41;100.00;96092.81;5020480;28;20214;-80
2023/01/22 03:32:10;;;;;;;218.37;22.07;;;;;;;-2.41;100.00;96093.63;5015346;28;20190;-78
2023/01/22 03:34:35;;;;;;;227.20;23.03;;;;;;;-2.42;100.00;96086.06;5029828;28;20245;-78
2023/01/22 03:37:00;;;;;;;174.20;23.30;;;;;;;-2.38;100.00;96088.44;5022629;28;20190;-82
2023/01/22 03:39:26;;;;;;;194.50;21.97;;;;;;;-2.36;100.00;96093.47;5022293;28;20206;-81
2023/01/22 03:41:52;;;;;;;133.03;19.70;;;;;;;-2.39;100.00;96091.03;4998448;28;20187;-81
2023/01/22 03:44:17;;;;;;;235.60;23.83;;;;;;;-2.40;100.00;96094.44;5012329;28;20225;-80
2023/01/22 03:46:42;;;;;;;228.50;23.57;;;;;;;-2.37;100.00;96095.19;5016867;28;20229;-82
2023/01/22 03:49:09;;;;;;;176.63;19.20;;;;;;;-2.39;100.00;96093.56;5022613;28;20175;-80
2023/01/22 03:51:35;;;;;;;153.23;20.20;;;;;;;-2.39;100.00;96093.56;5029117;28;20257;-79
2023/01/22 03:54:00;;;;;;;316.23;25.20;;;;;;;-2.48;100.00;96093.91;5013149;28;20190;-80
2023/01/22 03:56:26;;;;;;;72.80;16.20;;;;;;;-2.30;100.00;96093.22;5011479;28;20207;-80
2023/01/22 03:58:52;;;;;;;73.50;17.90;;;;;;;-2.32;100.00;96092.47;5011083;28;20192;-81
2023/01/22 04:01:20;;;;;;;306.60;27.37;;;;;;;-2.40;100.00;96092.72;4995462;28;20247;-82
2023/01/22 04:03:45;;;;;;;327.83;27.27;;;;;;;-2.36;100.00;96088.38;5016491;28;20677;-80
2023/01/22 04:06:11;;;;;;;155.47;19.73;;;;;;;-2.40;100.00;96076.66;5022083;28;20182;-80
2023/01/22 04:08:39;;;;;;;255.07;24.80;;;;;;;-2.33;100.00;96090.81;5027896;28;20174;-81
2023/01/22 04:11:05;;;;;;;131.47;18.73;;;;;;;-2.34;100.00;96087.44;5031213;28;20638;-79
2023/01/22 04:13:32;;;;;;;280.27;23.23;;;;;;;-2.38;100.00;96090.16;5004662;28;20198;-80
2023/01/22 04:15:57;;;;;;;84.27;17.63;;;;;;;-2.33;100.00;96096.72;5014161;28;20538;-81
2023/01/22 04:18:23;;;;;;;293.97;27.53;;;;;;;-2.38;100.00;96091.00;5011832;28;20190;-80
2023/01/22 04:20:49;;;;;;;38.90;14.73;;;;;;;-2.26;100.00;96093.97;5016280;28;20249;-80
2023/01/22 04:23:15;;;;;;;105.50;18.20;;;;;;;-2.25;100.00;96091.34;5012441;28;20206;-81
2023/01/22 04:25:40;;;;;;;91.80;19.93;;;;;;;-2.23;100.00;96097.22;5027767;28;20179;-80
2023/01/22 04:28:07;;;;;;;110.13;19.97;;;;;;;-2.24;100.00;96099.81;5012491;28;20191;-82
2023/01/22 04:30:32;;;;;;;119.90;21.60;;;;;;;-2.34;100.00;96091.69;5011402;28;20268;-82
2023/01/22 04:32:58;;;;;;;115.27;20.53;;;;;;;-2.41;100.00;96091.09;5011030;28;20655;-83
2023/01/22 04:35:23;;;;;;;55.13;15.57;;;;;;;-2.36;100.00;96089.22;5011415;28;20184;-81
2023/01/22 04:37:49;;;;;;;39.23;16.43;;;;;;;-2.28;100.00;96091.47;5016469;28;20251;-81
2023/01/22 04:40:14;;;;;;;37.67;16.20;;;;;;;-2.26;100.00;96093.97;5022052;28;20216;-83
2023/01/22 04:42:39;;;;;;;36.70;15.70;;;;;;;-2.17;100.00;96093.63;5025680;28;20659;-82
2023/01/22 04:45:06;;;;;;;27.57;14.07;;;;;;;-2.09;100.00;96096.69;5028465;28;20195;-81
2023/01/22 04:47:31;;;;;;;36.43;14.93;;;;;;;-2.12;100.00;96104.44;5028403;28;20712;-80
2023/01/22 04:49:56;;;;;;;24.77;13.00;;;;;;;-2.11;100.00;96104.41;5016195;28;20199;-82
2023/01/22 04:52:21;;;;;;;42.37;14.67;;;;;;;-2.31;100.00;96097.47;5011872;28;20194;-81
2023/01/22 04:54:47;;;;;;;29.00;13.87;;;;;;;-2.21;100.00;96103.06;5015766;28;20209;-82
2023/01/22 04:57:12;;;;;;;54.37;15.27;;;;;;;-2.42;100.00;96111.50;5022126;28;20192;-81
2023/01/22 04:59:37;;;;;;;28.80;13.87;;;;;;;-2.24;100.00;96110.81;5013393;28;20261;-80
2023/01/22 05:02:03;;;;;;;23.10;12.87;;;;;;;-2.17;100.00;96108.88;5013123;28;20190;-81
2023/01/22 05:04:28;;;;;;;33.90;14.13;;;;;;;-2.21;100.00;96108.16;5019499;28;20201;-82
2023/01/22 05:06:54;;;;;;;34.77;14.40;;;;;;;-2.26;100.00;96112.59;5012395;28;20214;-81
2023/01/22 05:09:19;;;;;;;26.30;14.47;;;;;;;-2.14;100.00;96111.31;5013181;28;20214;-82
2023/01/22 05:11:45;;;;;;;29.97;15.20;;;;;;;-2.29;100.00;96107.63;5007965;28;20228;-81
2023/01/22 05:14:10;;;;;;;34.73;16.77;;;;;;;-2.21;100.00;96110.69;5011173;28;20194;-81
2023/01/22 05:16:35;;;;;;;31.20;15.57;;;;;;;-2.18;100.00;96108.06;5025084;28;20186;-83
2023/01/22 05:19:01;;;;;;;35.80;15.40;;;;;;;-2.13;100.00;96112.97;5028520;28;20744;-82
2023/01/22 05:21:26;;;;;;;36.70;15.90;;;;;;;-2.15;100.00;96120.66;4996341;28;20215;-81
2023/01/22 05:23:51;;;;;;;34.07;16.47;;;;;;;-2.13;100.00;96116.31;5014503;28;20186;-82
2023/01/22 05:26:17;;;;;;;54.67;16.40;;;;;;;-2.07;100.00;96115.28;5014651;28;20521;-82
2023/01/22 05:28:42;;;;;;;97.53;19.70;;;;;;;-2.14;100.00;96122.31;5018785;28;20220;-81
2023/01/22 05:31:09;;;;;;;85.80;19.63;;;;;;;-2.23;100.00;96119.28;5024777;28;20259;-82
2023/01/22 05:33:34;;;;;;;157.20;20.67;;;;;;;-2.29;100.00;96120.34;5030118;28;20183;-81
2023/01/22 05:36:01;;;;;;;62.17;15.67;;;;;;;-2.25;100.00;96126.97;5015297;28;20354;-82
2023/01/22 05:38:27;;;;;;;42.20;18.47;;;;;;;-2.12;100.00;96120.56;5012783;28;20191;-81
2023/01/22 05:40:53;;;;;;;43.53;17.83;;;;;;;-2.13;100.00;96120.59;5019136;28;20235;-81
2023/01/22 05:43:18;;;;;;;47.33;17.67;;;;;;;-2.12;100.00;96114.59;5015414;28;20226;-83
2023/01/22 05:45:43;;;;;;;33.93;17.27;;;;;;;-2.08;100.00;96121.25;5018801;28;20263;-83
2023/01/22 05:48:09;;;;;;;30.07;16.53;;;;;;;-1.99;100.00;96123.47;5015816;28;20189;-82
2023/01/22 05:50:35;;;;;;;32.33;16.40;;;;;;;-2.02;100.00;96124.41;5030861;28;20631;-82
2023/01/22 05:53:01;;;;;;;31.53;16.83;;;;;;;-1.98;100.00;96126.84;5042008;28;20171;-80
2023/01/22 05:55:26;;;;;;;36.77;17.93;;;;;;;-1.97;100.00;96126.78;5028109;28;20210;-83
2023/01/22 05:57:51;;;;;;;36.67;17.37;;;;;;;-1.94;100.00;96129.22;5019131;28;20194;-83
2023/01/22 06:00:17;;;;;;;34.70;18.37;;;;;;;-2.00;100.00;96137.91;5018285;28;20313;-81
2023/01/22 06:02:42;;;;;;;36.23;17.80;;;;;;;-2.01;100.00;96130.34;5034476;28;20188;-82
2023/01/22 06:05:08;;;;;;;35.37;16.50;;;;;;;-2.07;100.00;96128.84;5023048;28;20274;-83
2023/01/22 06:07:33;;;;;;;30.67;16.27;;;;;;;-2.06;100.00;96127.13;5015394;28;20187;-81
2023/01/22 06:09:58;;;;;;;30.30;15.97;;;;;;;-1.98;100.00;96135.28;5016635;28;20677;-83
2023/01/22 06:12:24;;;;;;;41.60;16.17;;;;;;;-2.01;100.00;96140.50;5022941;28;20187;-83
2023/01/22 06:14:49;;;;;;;35.37;14.53;;;;;;;-2.03;100.00;96143.13;5024759;28;20214;-82
2023/01/22 06:17:15;;;;;;;41.03;17.37;;;;;;;-2.01;100.00;96151.53;5016727;28;20195;-83
2023/01/22 06:19:41;;;;;;;34.63;18.43;;;;;;;-2.06;100.00;96150.84;5020464;28;20613;-83
2023/01/22 06:22:06;;;;;;;35.37;16.53;;;;;;;-2.03;100.00;96152.47;5006929;28;20201;-82
2023/01/22 06:24:31;;;;;;;29.90;16.00;;;;;;;-2.04;100.00;96154.16;5029408;28;20196;-80
2023/01/22 06:26:56;;;;;;;26.93;15.07;;;;;;;-1.93;100.00;96153.78;5031389;28;20193;-82
2023/01/22 06:29:22;;;;;;;37.53;15.80;;;;;;;-1.98;100.00;96155.66;5014649;28;20266;-82
2023/01/22 06:31:47;;;;;;;29.17;16.03;;;;;;;-1.99;100.00;96159.09;5003831;28;20723;-82
2023/01/22 06:34:13;;;;;;;28.43;14.97;;;;;;;-1.93;100.00;96153.78;5016094;28;20673;-81
2023/01/22 06:36:38;;;;;;;27.83;15.43;;;;;;;-1.89;100.00;96157.03;5017145;28;20215;-83
2023/01/22 06:39:04;;;;;;;29.67;16.33;;;;;;;-1.90;100.00;96163.00;5022203;28;20229;-82
2023/01/22 06:41:29;;;;;;;27.10;14.90;;;;;;;-1.93;100.00;96156.34;5027169;28;20195;-82
2023/01/22 06:43:54;;;;;;;28.77;14.27;;;;;;;-1.92;100.00;96154.63;5033199;28;20273;-83
2023/01/22 06:46:19;;;;;;;26.47;14.17;;;;;;;-1.89;100.00;96165.50;5014935;28;20196;-81
2023/01/22 06:48:45;;;;;;;24.97;14.93;;;;;;;-1.93;100.00;96163.13;5013903;28;20688;-83
2023/01/22 06:51:11;;;;;;;27.83;15.73;;;;;;;-1.87;100.00;96170.53;4998343;28;20253;-82
2023/01/22 06:53:36;;;;;;;26.17;15.47;;;;;;;-1.92;100.00;96164.78;5013950;28;20239;-79
2023/01/22 06:56:02;;;;;;;27.47;15.13;;;;;;;-1.86;100.00;96164.53;5022209;28;20547;-83
2023/01/22 06:58:27;;;;;;;28.00;15.00;;;;;;;-1.86;100.00;96167.91;5011543;28;20954;-83
2023/01/22 07:00:53;;;;;;;28.70;15.73;;;;;;;-1.86;100.00;96169.63;5015399;28;20222;-81
2023/01/22 07:03:18;;;;;;;24.67;14.57;;;;;;;-2.01;100.00;96179.50;5013911;28;20205;-79
2023/01/22 07:05:43;;;;;;;26.17;14.87;;;;;;;-1.91;100.00;96174.09;5019295;28;20535;-79
2023/01/22 07:08:14;;;;;;;23.63;13.97;;;;;;;-1.80;100.00;96174.50;5019181;28;20182;-79
2023/01/22 07:10:39;;;;;;;27.53;16.17;;;;;;;-1.78;100.00;96176.09;5011547;28;20715;-79
2023/01/22 07:13:06;;;;;;;30.80;16.23;;;;;;;-1.76;100.00;96176.06;5022624;28;20187;-80
2023/01/22 07:15:32;;;;;;;27.77;16.43;;;;;;;-1.76;100.00;96183.72;5022676;28;20184;-79
2023/01/22 07:17:57;;;;;;;39.27;21.40;;;;;;;-1.72;100.00;96183.50;5012902;28;20183;-80
2023/01/22 07:20:22;;;;;;;38.73;22.30;;;;;;;-1.64;100.00;96187.50;5018177;28;20211;-78
2023/01/22 07:22:48;;;;;;;31.13;17.37;;;;;;;-1.63;100.00;96189.97;5024033;28;20234;-80
2023/01/22 07:25:13;;;;;;;26.17;15.23;;;;;;;-1.62;100.00;96193.34;5029099;28;20642;-80
2023/01/22 07:27:39;;;;;;;30.30;17.57;;;;;;;-1.59;100.00;96194.09;5027021;28;20192;-79
2023/01/22 07:30:05;;;;;;;28.60;16.07;;;;;;;-1.57;100.00;96202.50;5020522;28;20668;-80
2023/01/22 07:32:31;;;;;;;28.10;16.73;;;;;;;-1.51;100.00;96194.59;5021733;28;20260;-80
2023/01/22 07:34:56;;;;;;;29.70;17.40;;;;;;;-1.69;100.00;96202.94;5011042;28;20234;-80
2023/01/22 07:37:21;;;;;;;29.87;18.40;;;;;;;-1.50;100.00;96211.56;5017858;28;20554;-81
2023/01/22 07:39:46;;;;;;;30.63;17.23;;;;;;;-1.34;100.00;96203.31;5012716;28;20763;-80
2023/01/22 07:42:12;;;;;;;72.77;37.30;;;;;;;-1.24;100.00;96212.25;5028386;28;20201;-80
2023/01/22 07:44:40;;;;;;;47.33;26.17;;;;;;;-1.28;100.00;96203.91;4998513;28;20210;-81
2023/01/22 07:47:06;;;;;;;34.57;23.13;;;;;;;-1.26;100.00;96207.22;5019945;28;20194;-80
2023/01/22 07:49:31;;;;;;;30.23;17.27;;;;;;;-1.26;100.00;96207.22;5013087;28;20209;-79
2023/01/22 07:51:56;;;;;;;27.83;17.00;;;;;;;-1.41;99.71;96207.84;5013929;28;20183;-80
2023/01/22 07:54:22;;;;;;;23.07;14.40;;;;;;;-1.32;100.00;96211.75;5029013;28;20563;-78
2023/01/22 07:56:47;;;;;;;25.27;16.00;;;;;;;-1.29;100.00;96211.63;5018634;28;20539;-79
2023/01/22 07:59:13;;;;;;;24.87;14.30;;;;;;;-1.28;99.86;96209.00;5012507;28;20288;-79
2023/01/22 08:01:38;;;;;;;23.30;15.07;;;;;;;-1.28;99.86;96220.91;5013556;28;20203;-79
2023/01/22 08:04:04;;;;;;;24.73;14.73;;;;;;;-1.29;99.67;96216.72;5019396;28;20237;-79
2023/01/22 08:06:29;;;;;;;25.03;15.13;;;;;;;-1.28;99.98;96216.66;5024824;28;20183;-79
2023/01/22 08:08:55;;;;;;;22.47;13.83;;;;;;;-1.32;99.45;96216.84;5012635;28;20655;-79
2023/01/22 08:11:20;;;;;;;22.57;14.53;;;;;;;-1.22;99.36;96224.06;5024141;28;20222;-79
2023/01/22 08:13:45;;;;;;;24.00;14.97;;;;;;;-1.05;99.63;96231.06;5018568;28;20192;-79
2023/01/22 08:16:11;;;;;;;25.50;14.37;;;;;;;-1.07;99.13;96227.72;5013618;28;20195;-81
2023/01/22 08:18:36;;;;;;;22.67;15.03;;;;;;;-0.99;98.59;96230.78;5013920;28;20280;-80
2023/01/22 08:21:01;;;;;;;25.30;15.33;;;;;;;-1.03;98.04;96233.53;5010802;28;20313;-80
2023/01/22 08:23:27;;;;;;;24.53;14.97;;;;;;;-1.05;98.62;96231.06;5016393;28;20741;-79
2023/01/22 08:25:52;;;;;;;23.20;14.40;;;;;;;-0.93;98.18;96233.09;5009839;28;20238;-79
2023/01/22 08:28:17;;;;;;;23.17;15.20;;;;;;;-0.98;97.61;96245.19;5015755;28;20200;-79
2023/01/22 08:30:46;;;;;;;33.00;18.20;;;;;;;-0.97;98.19;96241.78;5022130;28;20654;-80
2023/01/22 08:33:14;;;;;;;25.63;15.30;;;;;;;-0.97;98.01;96249.44;5044651;28;20173;-80
2023/01/22 08:35:40;;;;;;;23.37;14.73;;;;;;;-0.94;98.04;96239.09;5033582;28;20193;-81
2023/01/22 08:38:05;;;;;;;22.07;14.50;;;;;;;-0.98;97.52;96247.75;5026138;28;20493;-81
2023/01/22 08:40:31;;;;;;;22.23;13.47;;;;;;;-0.93;97.71;96248.41;5013083;28;20303;-81
2023/01/22 08:42:56;;;;;;;24.50;15.03;;;;;;;-0.81;97.39;96248.78;5011919;28;20663;-80
2023/01/22 08:45:21;;;;;;;30.13;17.80;;;;;;;-0.78;97.09;96251.25;5015624;28;20626;-81
2023/01/22 08:47:46;;;;;;;22.90;13.87;;;;;;;-0.76;96.75;96252.81;5021336;28;20196;-81
2023/01/22 08:50:12;;;;;;;22.80;14.10;;;;;;;-1.11;98.99;96253.41;5020670;28;20225;-80
2023/01/22 08:52:38;;;;;;;23.50;14.63;;;;;;;-0.91;98.14;96258.53;5012547;28;20244;-81
2023/01/22 08:55:05;;;;;;;29.40;18.10;;;;;;;-0.89;98.13;96265.22;5019906;28;20190;-81
2023/01/22 08:57:31;;;;;;;25.30;16.50;;;;;;;-1.24;99.27;96261.50;4996059;28;20196;-81
2023/01/22 08:59:56;;;;;;;22.37;13.43;;;;;;;-1.17;100.00;96267.19;5017333;28;20214;-82
2023/01/22 09:02:21;;;;;;;23.87;14.10;;;;;;;-1.20;99.35;96267.31;5017988;28;20202;-81
2023/01/22 09:04:46;;;;;;;23.83;15.00;;;;;;;-1.06;99.52;96270.19;5035962;28;20731;-80
2023/01/22 09:07:12;;;;;;;22.03;13.90;;;;;;;-1.29;100.00;96265.97;5041199;28;20189;-81
2023/01/22 09:09:37;;;;;;;24.27;14.50;;;;;;;-1.16;100.00;96271.41;5021562;28;20252;-82
2023/01/22 09:12:02;;;;;;;21.97;13.93;;;;;;;-1.03;99.23;96272.59;5020087;28;20199;-80
2023/01/22 09:14:28;;;;;;;23.83;13.40;;;;;;;-1.07;99.83;96268.50;5034027;28;20204;-77
2023/01/22 09:16:53;;;;;;;22.47;14.17;;;;;;;-1.04;99.47;96278.59;5019394;28;20194;-81
2023/01/22 09:19:18;;;;;;;20.23;13.10;;;;;;;-0.82;99.16;96277.75;5023535;28;20202;-81
2023/01/22 09:21:44;;;;;;;46.23;14.23;;;;;;;-1.14;99.83;96272.19;5031253;28;20550;-81
2023/01/22 09:24:09;;;;;;;28.57;13.80;;;;;;;-0.82;99.43;96272.63;5020147;28;20566;-80
2023/01/22 09:26:38;;;;;;;20.10;12.77;;;;;;;-0.81;98.78;96276.84;5017791;28;20572;-80
2023/01/22 09:29:04;;;;;;;22.83;13.37;;;;;;;-0.69;98.21;96276.38;5030245;28;20241;-79
2023/01/22 09:31:31;;;;;;;19.93;11.97;;;;;;;-0.47;97.74;96281.41;5023149;28;20686;-80
2023/01/22 09:33:56;;;;;;;19.73;12.67;;;;;;;-0.34;96.50;96285.16;5019030;28;20192;-81
2023/01/22 09:36:21;;;;;;;18.73;11.90;;;;;;;-0.46;95.87;96281.34;5021733;28;20186;-79
2023/01/22 09:38:46;;;;;;;20.20;11.53;;;;;;;-0.95;98.50;96285.88;5027857;28;20208;-79
2023/01/22 09:41:18;;;;;;;17.30;11.67;;;;;;;-0.88;99.27;96289.03;5025548;28;20222;-79
2023/01/22 09:43:50;;;;;;;17.50;11.53;;;;;;;-0.59;98.11;96292.97;5021075;28;20308;-79
2023/01/22 09:46:23;;;;;;;19.63;12.30;;;;;;;-0.59;96.51;96290.41;5022443;28;20300;-76
2023/01/22 09:48:52;;;;;;;22.20;15.10;;;;;;;-0.70;96.86;96295.94;5028913;28;20673;-80
2023/01/22 09:51:18;;;;;;;18.67;12.63;;;;;;;-0.65;97.91;96296.59;5015355;28;20324;-80
2023/01/22 09:53:50;;;;;;;18.73;12.33;;;;;;;-0.76;96.90;96301.28;5020329;28;20228;-79
2023/01/22 09:56:21;;;;;;;18.33;11.53;;;;;;;-0.72;97.62;96296.88;5015058;28;20665;-79
2023/01/22 09:58:48;;;;;;;17.57;11.63;;;;;;;-0.64;97.45;96297.41;5031849;28;20187;-79
2023/01/22 10:01:14;;;;;;;16.87;11.27;;;;;;;-0.59;96.72;96300.63;5014962;28;20290;-78
2023/01/22 10:03:43;;;;;;;18.93;11.23;;;;;;;-0.68;97.79;96301.00;5023568;28;20204;-78
2023/01/22 10:06:12;;;;;;;14.30;9.43;;;;;;;-0.93;98.75;96307.03;5015443;28;20658;-80
2023/01/22 10:08:55;;;;;;;15.30;10.03;;;;;;;-0.49;95.48;96303.63;5002829;28;20286;-80
2023/01/22 10:11:20;;;;;;;13.97;9.77;;;;;;;-0.64;96.96;96303.34;5022435;28;20559;-80
2023/01/22 10:13:48;;;;;;;19.83;11.90;;;;;;;-0.57;96.73;96302.19;5038674;28;20193;-78
2023/01/22 10:16:14;;;;;;;16.13;11.33;;;;;;;-0.39;96.54;96304.91;5052245;28;20173;-79
2023/01/22 10:18:44;;;;;;;15.07;10.50;;;;;;;-0.53;96.92;96304.63;5049381;28;20578;-78
2023/01/22 10:21:16;;;;;;;15.33;11.40;;;;;;;-0.42;96.20;96305.03;5046080;28;20212;-78
2023/01/22 10:23:42;;;;;;;18.50;11.13;;;;;;;-0.40;95.62;96310.91;5037662;28;20173;-78
2023/01/22 10:26:23;;;;;;;14.70;9.67;;;;;;;-0.76;97.76;96305.56;5053571;28;20198;-78
2023/01/22 10:28:50;;;;;;;16.60;10.87;;;;;;;-0.65;97.90;96308.50;5037321;28;20537;-80
2023/01/22 10:31:21;;;;;;;17.37;11.23;;;;;;;-0.76;98.99;96300.47;5016678;28;20220;-78
2023/01/22 10:33:46;;;;;;;27.50;11.93;;;;;;;-0.88;98.24;96302.59;5030885;28;20218;-79
2023/01/22 10:36:12;;;;;;;77.57;13.87;;;;;;;-0.68;97.10;96301.00;5024057;28;20187;-78
2023/01/22 10:38:38;;;;;;;18.73;11.57;;;;;;;-0.30;96.61;96307.91;5021329;28;20200;-80
2023/01/22 10:41:03;;;;;;;19.10;12.13;;;;;;;-0.16;95.99;96298.88;5020985;28;20223;-78
2023/01/22 10:43:30;;;;;;;24.40;10.80;;;;;;;-0.10;95.07;96303.69;5036208;28;20197;-79
2023/01/22 10:46:00;;;;;;;72.27;14.60;;;;;;;-0.02;95.38;96299.09;5025324;28;20184;-80
2023/01/22 10:48:26;;;;;;;168.83;18.87;;;;;;;-0.76;98.15;96308.09;5014650;28;20189;-81
2023/01/22 10:51:12;;;;;;;128.40;20.13;;;;;;;-0.39;98.34;96303.19;5015836;28;20299;-80
2023/01/22 10:53:46;;;;;;;84.80;14.80;;;;;;;-0.63;98.26;96301.63;5020637;28;20182;-80
2023/01/22 10:56:22;;;;;;;109.40;17.83;;;;;;;-0.60;100.00;96306.63;5024600;28;20193;-79
2023/01/22 10:58:48;;;;;;;162.90;24.47;;;;;;;-0.62;99.30;96305.81;5030735;28;20189;-80
2023/01/22 11:01:39;;;;;;;118.73;18.90;;;;;;;-0.32;97.59;96308.88;5027925;28;20221;-79
2023/01/22 11:04:34;;;;;;;314.77;26.20;;;;;;;-0.58;100.00;96304.81;5017451;28;20213;-79
2023/01/22 11:07:19;;;;;;;334.40;26.93;;;;;;;-0.52;99.23;96308.84;4991026;28;20206;-79
2023/01/22 11:09:49;;;;;;;261.87;24.30;;;;;;;-0.89;100.00;96313.66;4975656;28;20205;-78
2023/01/22 11:12:25;;;;;;;339.40;32.23;;;;;;;-0.71;100.00;96311.28;4958840;28;20199;-78
2023/01/22 11:15:01;;;;;;;175.17;19.27;;;;;;;-0.48;100.00;96318.88;4975320;28;20195;-80